Time;durP1;ratioP1;P1;durP2;ratioP2;P2;SDS_P1;SDS_P2;PMS_P1;PMS_P2;Temp;Humidity;BMP_temperature;BMP_pressure;BME280_temperature;BME280_humidity;BME280_pressure;Samples;Min_cycle;Max_cycle;Signal;HPM_P1;HPM_P2
2022/10/20 00:01:18;;;;;;;3.35;2.30;;;;;;;7.29;100.00;102091.88;6251075;28;20436;-76
2022/10/20 00:04:20;;;;;;;2.58;1.55;;;;;;;7.31;100.00;102079.66;6250929;28;20049;-76
2022/10/20 00:07:22;;;;;;;2.45;1.50;;;;;;;7.35;100.00;102068.22;6251566;28;20057;-77
2022/10/20 00:10:23;;;;;;;3.05;1.80;;;;;;;7.36;100.00;102063.88;6250947;28;20060;-77
2022/10/20 00:13:25;;;;;;;3.95;1.98;;;;;;;7.31;100.00;102061.34;6251625;28;20045;-77
2022/10/20 00:16:30;;;;;;;2.10;1.40;;;;;;;7.33;100.00;102048.25;6251545;28;20053;-76
2022/10/20 00:19:32;;;;;;;4.00;2.22;;;;;;;7.30;100.00;102053.50;6251206;28;20052;-76
2022/10/20 00:22:34;;;;;;;4.28;2.08;;;;;;;7.33;100.00;102046.47;6250980;28;20049;-76
2022/10/20 00:25:35;;;;;;;6.18;1.52;;;;;;;7.32;100.00;102044.75;6250834;28;20060;-76
2022/10/20 00:28:37;;;;;;;3.30;1.80;;;;;;;7.31;100.00;102045.66;6251397;28;20049;-77
2022/10/20 00:31:39;;;;;;;10.07;2.47;;;;;;;7.29;100.00;102036.97;6250441;28;20493;-77
2022/10/20 00:34:41;;;;;;;4.72;1.63;;;;;;;7.30;100.00;102027.38;6250686;28;20054;-77
2022/10/20 00:37:42;;;;;;;5.22;1.92;;;;;;;7.31;100.00;102029.97;6250747;28;20424;-77
2022/10/20 00:40:44;;;;;;;2.42;1.40;;;;;;;7.33;100.00;102027.31;6250557;28;20046;-77
2022/10/20 00:43:48;;;;;;;5.90;2.80;;;;;;;7.34;100.00;102015.97;6250778;28;20056;-78
2022/10/20 00:46:51;;;;;;;3.30;1.80;;;;;;;7.31;100.00;102011.66;6250781;28;20050;-76
2022/10/20 00:49:53;;;;;;;2.42;1.70;;;;;;;7.29;100.00;102004.72;6250186;28;20497;-76
2022/10/20 00:52:56;;;;;;;1.80;1.38;;;;;;;7.30;100.00;102001.22;6250523;28;20045;-77
2022/10/20 00:55:59;;;;;;;3.35;2.00;;;;;;;7.27;100.00;101998.69;6250356;28;20060;-76
2022/10/20 00:59:01;;;;;;;2.28;1.50;;;;;;;7.24;100.00;101999.59;6250286;28;20053;-76
2022/10/20 01:02:06;;;;;;;7.50;2.15;;;;;;;7.20;100.00;101999.69;6250280;28;20052;-75
2022/10/20 01:05:09;;;;;;;2.80;1.63;;;;;;;7.12;100.00;101999.81;6249840;28;20060;-76
2022/10/20 01:08:10;;;;;;;7.18;2.45;;;;;;;7.06;100.00;101995.56;6249433;28;20049;-76
2022/10/20 01:11:19;;;;;;;5.05;1.88;;;;;;;7.00;100.00;102000.06;6249600;28;20064;-77
2022/10/20 01:14:34;;;;;;;3.57;1.60;;;;;;;6.94;100.00;101994.94;6249762;28;20050;-77
2022/10/20 01:17:45;;;;;;;4.72;1.38;;;;;;;6.93;100.00;101990.59;6250095;28;20292;-77
2022/10/20 01:21:18;;;;;;;5.32;2.35;;;;;;;6.90;100.00;101980.19;6249636;28;20420;-76
2022/10/20 01:24:48;;;;;;;3.85;1.80;;;;;;;6.82;100.00;101981.22;6249770;28;20052;-77
2022/10/20 01:27:55;;;;;;;4.10;1.50;;;;;;;6.79;100.00;101975.19;6249990;28;20058;-77
2022/10/20 01:31:01;;;;;;;4.80;1.67;;;;;;;6.77;100.00;101967.38;6249371;28;20056;-77
2022/10/20 01:34:09;;;;;;;4.25;1.58;;;;;;;6.77;100.00;101966.50;6249188;28;20412;-77
2022/10/20 01:37:19;;;;;;;2.92;1.63;;;;;;;6.74;100.00;101961.34;6249511;28;20136;-76
2022/10/20 01:40:27;;;;;;;2.58;1.80;;;;;;;6.73;100.00;101950.03;6249265;28;20053;-76
2022/10/20 01:43:33;;;;;;;2.15;1.55;;;;;;;6.73;100.00;101957.88;6249475;28;20045;-76
2022/10/20 01:46:37;;;;;;;4.50;1.65;;;;;;;6.76;100.00;101968.25;6249317;28;20045;-76
2022/10/20 01:49:42;;;;;;;2.17;1.70;;;;;;;6.78;100.00;101969.09;6248880;28;20408;-77
2022/10/20 01:52:44;;;;;;;4.00;1.95;;;;;;;6.79;100.00;101959.50;6249620;28;20052;-76
2022/10/20 01:55:45;;;;;;;8.73;1.98;;;;;;;6.79;100.00;101957.75;6248721;28;20056;-77
2022/10/20 01:59:21;;;;;;;3.05;2.00;;;;;;;6.76;100.00;101949.09;6249360;28;20045;-76
2022/10/20 02:02:38;;;;;;;6.80;1.95;;;;;;;6.73;100.00;101943.94;6248847;28;20064;-77
2022/10/20 02:05:58;;;;;;;4.50;1.52;;;;;;;6.74;100.00;101937.81;6249092;28;20408;-76
2022/10/20 02:09:04;;;;;;;2.15;1.38;;;;;;;6.73;100.00;101931.75;6248683;28;20421;-77
2022/10/20 02:12:09;;;;;;;4.93;1.65;;;;;;;6.69;100.00;101926.59;6248469;28;20098;-77
2022/10/20 02:15:17;;;;;;;3.67;1.58;;;;;;;6.69;100.00;101930.06;6248254;28;20045;-77
2022/10/20 02:18:24;;;;;;;2.03;1.30;;;;;;;6.66;100.00;101913.59;6248660;28;20511;-76
2022/10/20 02:21:26;;;;;;;2.45;1.48;;;;;;;6.63;100.00;101921.47;6248044;28;20050;-77
2022/10/20 02:24:33;;;;;;;4.60;1.60;;;;;;;6.59;100.00;101902.41;6248199;28;20052;-77
2022/10/20 02:27:37;;;;;;;6.60;1.73;;;;;;;6.58;100.00;101905.88;6248846;28;20053;-76
2022/10/20 02:30:41;;;;;;;2.72;1.67;;;;;;;6.60;100.00;101894.53;6247749;28;20054;-76
2022/10/20 02:33:44;;;;;;;4.00;1.55;;;;;;;6.52;100.00;101879.88;6248297;28;20051;-78
2022/10/20 02:36:46;;;;;;;3.28;1.48;;;;;;;6.55;100.00;101874.63;6249636;28;20042;-77
2022/10/20 02:39:47;;;;;;;3.80;1.80;;;;;;;6.51;100.00;101867.72;6249023;28;20075;-78
2022/10/20 02:42:49;;;;;;;2.30;1.40;;;;;;;6.52;100.00;101866.84;6249476;28;20101;-78
2022/10/20 02:45:52;;;;;;;1.95;1.55;;;;;;;6.51;100.00;101857.28;6248751;28;20053;-78
2022/10/20 02:48:53;;;;;;;3.22;1.17;;;;;;;6.46;100.00;101865.19;6249358;28;20055;-78
2022/10/20 02:51:55;;;;;;;3.00;1.88;;;;;;;6.47;100.00;101866.91;6246576;28;20053;-78
2022/10/20 02:54:56;;;;;;;3.08;1.48;;;;;;;6.43;100.00;101854.81;6249045;28;20045;-77
2022/10/20 02:57:58;;;;;;;3.97;1.65;;;;;;;6.48;100.00;101859.94;6249366;28;20042;-77
2022/10/20 03:01:01;;;;;;;4.95;1.75;;;;;;;6.44;100.00;101853.06;6248886;28;20053;-77
2022/10/20 03:04:02;;;;;;;3.47;1.63;;;;;;;6.42;100.00;101854.84;6248804;28;20481;-78
2022/10/20 03:07:03;;;;;;;5.43;1.40;;;;;;;6.39;100.00;101865.31;6249318;28;20049;-77
2022/10/20 03:10:06;;;;;;;3.22;1.50;;;;;;;6.31;100.00;101858.50;6248110;28;20049;-78
2022/10/20 03:13:08;;;;;;;5.80;1.58;;;;;;;6.29;100.00;101859.41;6249102;28;20093;-79
2022/10/20 03:16:11;;;;;;;2.58;1.55;;;;;;;6.26;100.00;101855.09;6248515;28;20057;-78
2022/10/20 03:19:12;;;;;;;4.43;1.67;;;;;;;6.24;100.00;101854.28;6249004;28;20060;-77
2022/10/20 03:22:13;;;;;;;8.15;1.65;;;;;;;6.26;100.00;101851.63;6248516;28;20049;-78
2022/10/20 03:25:15;;;;;;;3.00;1.70;;;;;;;6.26;100.00;101847.25;6248138;28;20049;-77
2022/10/20 03:28:17;;;;;;;5.32;1.77;;;;;;;6.26;100.00;101839.44;6248521;28;20417;-78
2022/10/20 03:31:20;;;;;;;5.82;2.03;;;;;;;6.24;100.00;101841.22;6247219;28;20046;-77
2022/10/20 03:34:21;;;;;;;1.83;1.40;;;;;;;6.24;100.00;101842.97;6247028;28;20045;-77
2022/10/20 03:37:23;;;;;;;3.70;1.30;;;;;;;6.22;100.00;101835.19;6247097;28;20064;-77
2022/10/20 03:40:24;;;;;;;3.88;1.33;;;;;;;6.21;100.00;101820.38;6247643;28;20390;-78
2022/10/20 03:43:25;;;;;;;5.22;1.40;;;;;;;6.20;100.00;101816.06;6248421;28;20052;-78
2022/10/20 03:46:28;;;;;;;2.13;1.20;;;;;;;6.20;100.00;101803.00;6247813;28;20060;-77
2022/10/20 03:49:32;;;;;;;2.80;1.63;;;;;;;6.19;100.00;101800.44;6248634;28;20493;-77
2022/10/20 03:52:35;;;;;;;4.07;2.38;;;;;;;6.15;100.00;101802.25;6247993;28;20057;-78
2022/10/20 03:55:37;;;;;;;11.98;1.98;;;;;;;6.16;100.00;101798.75;6247429;28;20056;-78
2022/10/20 03:58:38;;;;;;;2.75;1.67;;;;;;;6.14;100.00;101794.44;6247025;28;20049;-78
2022/10/20 04:01:45;;;;;;;4.47;1.58;;;;;;;6.13;100.00;101793.56;6246485;28;20053;-77
2022/10/20 04:04:46;;;;;;;6.05;1.90;;;;;;;6.15;100.00;101789.19;6246934;28;20053;-77
2022/10/20 04:07:47;;;;;;;1.70;1.42;;;;;;;6.12;100.00;101791.84;6246921;28;20046;-77
2022/10/20 04:10:49;;;;;;;6.03;1.63;;;;;;;6.11;100.00;101787.53;6246960;28;20056;-77
2022/10/20 04:13:50;;;;;;;3.53;1.80;;;;;;;6.09;100.00;101782.34;6246616;28;20508;-77
2022/10/20 04:16:53;;;;;;;7.47;1.65;;;;;;;6.08;100.00;101782.34;6247080;28;20049;-78
2022/10/20 04:19:55;;;;;;;4.18;1.65;;;;;;;6.09;100.00;101773.66;6246960;28;20060;-77
2022/10/20 04:22:56;;;;;;;5.55;2.10;;;;;;;6.05;100.00;101772.84;6247392;28;20539;-77
2022/10/20 04:25:57;;;;;;;3.75;2.00;;;;;;;6.06;100.00;101774.56;6247360;28;20056;-78
2022/10/20 04:28:59;;;;;;;4.75;1.80;;;;;;;6.04;100.00;101763.31;6248198;28;20056;-77
2022/10/20 04:32:02;;;;;;;2.05;1.60;;;;;;;6.04;100.00;101754.59;6247762;28;20049;-78
2022/10/20 04:35:04;;;;;;;2.65;2.03;;;;;;;6.02;100.00;101745.94;6247795;28;20062;-78
2022/10/20 04:38:05;;;;;;;3.53;1.77;;;;;;;5.98;100.00;101737.31;6248048;28;20049;-77
2022/10/20 04:41:06;;;;;;;2.83;1.90;;;;;;;6.00;100.00;101734.69;6247381;28;20493;-78
2022/10/20 04:44:08;;;;;;;3.58;1.85;;;;;;;5.92;100.00;101736.56;6251588;28;20056;-78
2022/10/20 04:47:11;;;;;;;2.92;1.40;;;;;;;5.92;100.00;101733.97;6252897;28;20049;-77
2022/10/20 04:50:13;;;;;;;3.88;1.75;;;;;;;5.91;100.00;101733.06;6252216;28;20517;-77
2022/10/20 04:53:14;;;;;;;2.45;1.27;;;;;;;5.92;100.00;101742.63;6252449;28;20056;-78
2022/10/20 04:56:18;;;;;;;3.78;1.65;;;;;;;5.87;100.00;101731.41;6245207;28;20046;-77
2022/10/20 04:59:19;;;;;;;3.08;1.90;;;;;;;5.91;100.00;101720.03;6250132;28;20045;-77
2022/10/20 05:02:23;;;;;;;2.53;1.63;;;;;;;5.94;100.00;101725.19;6242483;28;20512;-77
2022/10/20 05:05:25;;;;;;;6.80;2.03;;;;;;;5.95;100.00;101718.22;6246642;28;20130;-78
2022/10/20 05:08:26;;;;;;;7.93;2.13;;;;;;;5.88;100.00;101708.78;6239406;28;20508;-77
2022/10/20 05:11:29;;;;;;;2.70;1.60;;;;;;;5.83;100.00;101706.25;6238438;28;20085;-78
2022/10/20 05:14:31;;;;;;;1.80;1.50;;;;;;;5.85;100.00;101707.94;6238772;28;20057;-77
2022/10/20 05:17:33;;;;;;;2.45;1.52;;;;;;;5.87;100.00;101712.28;6239102;28;20037;-77
2022/10/20 05:20:38;;;;;;;3.80;1.75;;;;;;;5.87;100.00;101704.47;6238440;28;20049;-77
2022/10/20 05:23:40;;;;;;;2.42;1.60;;;;;;;5.86;100.00;101701.00;6237277;28;20052;-77
2022/10/20 05:26:41;;;;;;;3.28;1.63;;;;;;;5.87;100.00;101678.38;6237466;28;20050;-78
2022/10/20 05:29:43;;;;;;;2.63;1.50;;;;;;;5.87;100.00;101671.41;6235419;28;20733;-78
2022/10/20 05:32:47;;;;;;;3.53;1.77;;;;;;;5.76;100.00;101661.16;6239166;28;20060;-77
2022/10/20 05:35:48;;;;;;;7.03;1.88;;;;;;;5.74;100.00;101664.69;6235934;28;20108;-77
2022/10/20 05:38:52;;;;;;;3.92;2.00;;;;;;;5.75;100.00;101661.19;6238394;28;20421;-78
2022/10/20 05:41:53;;;;;;;2.35;1.63;;;;;;;5.77;100.00;101655.06;6239109;28;20528;-77
2022/10/20 05:44:55;;;;;;;3.75;1.75;;;;;;;5.75;100.00;101651.63;6242203;28;20042;-77
2022/10/20 05:47:58;;;;;;;2.78;1.70;;;;;;;5.81;100.00;101661.06;6249773;28;20093;-78
2022/10/20 05:51:07;;;;;;;3.50;1.83;;;;;;;5.84;100.00;101672.31;6245986;28;20072;-77
2022/10/20 05:54:10;;;;;;;;;;;;;;;5.85;100.00;101666.19;6249281;28;20488;-77
2022/10/20 05:57:11;;;;;;;2.35;1.50;;;;;;;5.85;100.00;101665.34;6251012;28;19928;-77
2022/10/20 06:00:14;;;;;;;4.88;1.15;;;;;;;5.80;100.00;101665.44;6250372;28;20054;-78
2022/10/20 06:03:17;;;;;;;4.22;2.05;;;;;;;5.83;100.00;101673.19;6247187;28;20052;-77
2022/10/20 06:06:21;;;;;;;4.15;1.63;;;;;;;5.80;100.00;101675.84;6249791;28;20508;-78
2022/10/20 06:09:23;;;;;;;3.58;1.75;;;;;;;5.85;100.00;101673.16;6250131;28;20052;-77
2022/10/20 06:12:24;;;;;;;2.20;1.35;;;;;;;5.84;100.00;101679.28;6250029;28;20079;-77
2022/10/20 06:15:26;;;;;;;2.75;1.95;;;;;;;5.83;100.00;101683.63;6249691;28;20056;-77
2022/10/20 06:18:28;;;;;;;3.25;1.85;;;;;;;5.91;100.00;101672.22;6249396;28;20072;-78
2022/10/20 06:21:32;;;;;;;7.22;2.35;;;;;;;5.98;100.00;101663.41;6249278;28;20053;-78
2022/10/20 06:24:33;;;;;;;4.28;1.60;;;;;;;6.03;100.00;101667.63;6249352;28;20052;-78
2022/10/20 06:27:34;;;;;;;2.72;1.35;;;;;;;6.05;100.00;101659.78;6250073;28;20060;-77
2022/10/20 06:30:36;;;;;;;4.68;1.35;;;;;;;6.08;100.00;101667.53;6249631;28;20056;-77
2022/10/20 06:33:39;;;;;;;4.78;1.80;;;;;;;6.12;100.00;101665.72;6249886;28;20425;-78
2022/10/20 06:36:41;;;;;;;2.78;1.23;;;;;;;6.14;100.00;101664.81;6248989;28;20057;-78
2022/10/20 06:39:43;;;;;;;4.30;1.92;;;;;;;6.14;100.00;101659.59;6249724;28;20099;-77
2022/10/20 06:42:44;;;;;;;3.47;1.67;;;;;;;6.12;100.00;101656.16;6250015;28;20057;-78
2022/10/20 06:45:54;;;;;;;4.68;1.40;;;;;;;6.12;100.00;101661.38;6249491;28;20501;-78
2022/10/20 06:48:59;;;;;;;3.95;2.00;;;;;;;6.14;100.00;101659.59;6250261;28;20053;-77
2022/10/20 06:52:00;;;;;;;5.68;1.48;;;;;;;6.12;100.00;101652.69;6249951;28;20049;-78
2022/10/20 06:55:02;;;;;;;3.75;2.30;;;;;;;6.09;100.00;101651.88;6249822;28;20042;-78
2022/10/20 06:58:03;;;;;;;4.20;1.85;;;;;;;6.13;100.00;101655.25;6249372;28;20054;-77
2022/10/20 07:01:07;;;;;;;3.42;1.52;;;;;;;6.15;100.00;101636.97;6249372;28;20132;-78
2022/10/20 07:04:14;;;;;;;2.95;2.03;;;;;;;6.18;100.00;101626.47;6245800;28;20057;-77
2022/10/20 07:07:15;;;;;;;5.47;2.58;;;;;;;6.20;100.00;101620.31;6221673;28;20061;-78
2022/10/20 07:10:17;;;;;;;3.67;2.50;;;;;;;6.25;100.00;101615.00;6248216;28;20505;-78
2022/10/20 07:13:18;;;;;;;7.32;2.30;;;;;;;6.25;100.00;101612.38;6248910;28;20233;-77
2022/10/20 07:16:22;;;;;;;4.35;2.28;;;;;;;6.24;100.00;101598.47;6249039;28;20057;-78
2022/10/20 07:19:25;;;;;;;4.68;2.25;;;;;;;6.27;100.00;101589.75;6255435;28;20053;-78
2022/10/20 07:22:26;;;;;;;5.28;2.20;;;;;;;6.34;100.00;101591.31;6249087;28;20045;-78
2022/10/20 07:25:27;;;;;;;4.10;1.88;;;;;;;6.37;100.00;101572.97;6249000;28;20049;-78
2022/10/20 07:28:29;;;;;;;4.05;1.95;;;;;;;6.35;100.00;101573.00;6249226;28;20049;-78
2022/10/20 07:31:33;;;;;;;5.53;1.90;;;;;;;6.44;100.00;101581.50;6236427;28;20412;-76
2022/10/20 07:34:36;;;;;;;5.30;2.13;;;;;;;6.51;100.00;101589.19;6246322;28;20049;-75
2022/10/20 07:37:37;;;;;;;4.78;2.42;;;;;;;6.56;100.00;101609.97;6246878;28;20103;-76
2022/10/20 07:40:39;;;;;;;2.70;1.83;;;;;;;6.62;100.00;101620.25;6246658;28;20054;-78
2022/10/20 07:43:41;;;;;;;5.43;2.10;;;;;;;6.67;100.00;101613.16;6246819;28;20054;-73
2022/10/20 07:46:43;;;;;;;3.60;2.05;;;;;;;6.76;100.00;101594.66;6243293;28;20050;-73
2022/10/20 07:49:46;;;;;;;4.07;1.92;;;;;;;6.83;100.00;101585.81;6246006;28;20060;-73
2022/10/20 07:52:50;;;;;;;3.85;2.08;;;;;;;6.85;100.00;101575.31;6240029;28;20049;-74
2022/10/20 07:55:52;;;;;;;3.17;2.28;;;;;;;6.91;100.00;101582.16;6243063;28;20496;-73
2022/10/20 07:58:54;;;;;;;3.65;2.22;;;;;;;6.97;100.00;101579.38;6246413;28;20052;-73
2022/10/20 08:01:56;;;;;;;4.10;2.28;;;;;;;6.96;100.00;101578.53;6246047;28;20049;-73
2022/10/20 08:04:58;;;;;;;5.35;1.98;;;;;;;6.99;100.00;101577.56;6246289;28;20046;-73
2022/10/20 08:08:00;;;;;;;7.93;3.13;;;;;;;7.08;100.00;101582.56;6246533;28;20054;-76
2022/10/20 08:11:02;;;;;;;5.53;2.58;;;;;;;7.14;100.00;101578.97;6246059;28;20057;-76
2022/10/20 08:14:03;;;;;;;6.82;2.33;;;;;;;7.19;100.00;101577.09;6246008;28;20061;-76
2022/10/20 08:17:05;;;;;;;2.58;1.88;;;;;;;7.28;100.00;101576.84;6246921;28;20061;-74
2022/10/20 08:20:09;;;;;;;3.50;1.80;;;;;;;7.29;100.00;101566.34;6250804;28;20053;-73
2022/10/20 08:23:10;;;;;;;4.50;2.22;;;;;;;7.35;100.00;101567.94;6251117;28;20179;-74
2022/10/20 08:26:16;;;;;;;3.60;2.30;;;;;;;7.43;100.00;101568.59;6250716;28;20045;-74
2022/10/20 08:29:17;;;;;;;4.65;2.50;;;;;;;7.46;100.00;101562.44;6251023;28;20057;-74
2022/10/20 08:32:19;;;;;;;3.65;2.35;;;;;;;7.51;100.00;101558.78;6250232;28;20069;-74
2022/10/20 08:35:22;;;;;;;3.90;2.08;;;;;;;7.58;100.00;101554.22;6319814;22;20049;-74
2022/10/20 08:38:24;;;;;;;4.28;2.50;;;;;;;7.67;100.00;101566.19;6275238;28;20075;-74
2022/10/20 08:41:32;;;;;;;6.18;2.85;;;;;;;7.80;100.00;101560.56;6275223;28;20045;-74
2022/10/20 08:44:36;;;;;;;7.97;2.88;;;;;;;7.86;100.00;101538.63;6274793;28;20064;-74
2022/10/20 08:47:38;;;;;;;5.13;2.50;;;;;;;7.93;100.00;101549.75;6275494;28;20059;-74
2022/10/20 08:50:44;;;;;;;4.55;2.05;;;;;;;7.99;100.00;101547.78;6274751;28;20052;-74
2022/10/20 08:53:48;;;;;;;5.22;2.53;;;;;;;8.09;100.00;101548.41;6274600;28;20519;-74
2022/10/20 08:56:50;;;;;;;6.38;2.83;;;;;;;8.17;100.00;101545.53;6275040;28;20045;-76
2022/10/20 08:59:54;;;;;;;5.05;2.25;;;;;;;8.19;100.00;101523.66;6274981;28;20060;-73
2022/10/20 09:02:59;;;;;;;3.28;1.80;;;;;;;8.25;100.00;101527.81;6274657;28;20052;-73
2022/10/20 09:06:08;;;;;;;5.78;2.85;;;;;;;8.32;100.00;101521.50;6274592;28;20045;-74
2022/10/20 09:09:13;;;;;;;2.60;2.20;;;;;;;8.37;100.00;101517.88;6274756;28;20048;-74
2022/10/20 09:12:16;;;;;;;4.18;2.70;;;;;;;8.46;100.00;101513.25;6274644;28;20049;-74
2022/10/20 09:15:20;;;;;;;7.03;3.17;;;;;;;8.51;100.00;101516.56;6274237;28;20049;-73
2022/10/20 09:18:22;;;;;;;4.43;2.38;;;;;;;8.61;100.00;101516.22;6274885;28;20049;-74
2022/10/20 09:21:25;;;;;;;6.88;2.85;;;;;;;8.72;100.00;101507.13;6272610;28;20436;-74
2022/10/20 09:24:29;;;;;;;5.43;2.30;;;;;;;8.78;100.00;101509.56;6273341;28;20159;-74
2022/10/20 09:27:33;;;;;;;2.67;2.03;;;;;;;8.89;100.00;101499.56;6273894;28;20084;-73
2022/10/20 09:30:35;;;;;;;10.63;3.05;;;;;;;9.04;100.00;101500.81;6272760;28;20052;-74
2022/10/20 09:33:37;;;;;;;4.93;2.80;;;;;;;9.11;100.00;101497.91;6274087;28;20048;-74
2022/10/20 09:36:41;;;;;;;3.78;2.53;;;;;;;9.14;100.00;101487.31;6273583;28;20041;-73
2022/10/20 09:39:50;;;;;;;2.92;2.22;;;;;;;9.22;100.00;101494.91;6273693;28;20575;-74
2022/10/20 09:42:55;;;;;;;5.50;2.65;;;;;;;9.26;100.00;101483.38;6273577;28;20041;-75
2022/10/20 09:45:59;;;;;;;5.47;2.90;;;;;;;9.31;100.00;101478.84;6273517;28;20041;-73
2022/10/20 09:49:01;;;;;;;5.88;2.67;;;;;;;9.41;100.00;101468.88;6273600;28;20049;-74
2022/10/20 09:52:16;;;;;;;5.47;2.80;;;;;;;9.43;100.00;101466.19;6273644;28;20052;-74
2022/10/20 09:55:28;;;;;;;7.97;2.72;;;;;;;9.50;100.00;101451.94;6273006;28;20052;-74
2022/10/20 09:58:31;;;;;;;6.57;2.55;;;;;;;9.58;100.00;101449.84;6273804;28;20048;-73
2022/10/20 10:01:33;;;;;;;6.45;3.08;;;;;;;9.68;100.00;101443.38;6272923;28;20045;-74
2022/10/20 10:04:37;;;;;;;9.27;2.90;;;;;;;9.76;100.00;101433.41;6273168;28;20055;-74
2022/10/20 10:07:39;;;;;;;4.90;2.70;;;;;;;9.83;100.00;101436.66;6273099;28;20397;-74
2022/10/20 10:10:44;;;;;;;5.47;3.53;;;;;;;9.90;100.00;101427.63;6273211;28;20049;-75
2022/10/20 10:13:48;;;;;;;3.72;2.63;;;;;;;9.97;100.00;101423.84;6257832;28;20056;-74
2022/10/20 10:16:50;;;;;;;5.35;2.88;;;;;;;10.07;100.00;101427.78;6248656;28;20049;-74
2022/10/20 10:19:51;;;;;;;4.90;3.13;;;;;;;10.11;100.00;101429.38;6247994;28;20045;-74
2022/10/20 10:23:15;;;;;;;11.07;2.63;;;;;;;10.20;100.00;101428.16;6248240;28;20045;-74
2022/10/20 10:26:43;;;;;;;6.57;2.72;;;;;;;10.38;100.00;101416.94;6247746;28;20053;-74
2022/10/20 10:29:45;;;;;;;4.57;2.65;;;;;;;10.50;100.00;101404.22;6247878;28;20088;-74
2022/10/20 10:32:47;;;;;;;6.63;3.53;;;;;;;10.62;100.00;101399.25;6248038;28;20061;-74
2022/10/20 10:35:49;;;;;;;5.47;2.85;;;;;;;10.65;100.00;101406.16;6247159;28;20072;-74
2022/10/20 10:38:53;;;;;;;5.18;3.10;;;;;;;10.66;99.46;101394.72;6249084;28;20056;-74
2022/10/20 10:42:06;;;;;;;2.85;2.15;;;;;;;10.71;100.00;101390.13;6272078;28;20049;-73
2022/10/20 10:45:17;;;;;;;6.97;2.83;;;;;;;10.73;100.00;101390.06;6271905;28;20044;-74
2022/10/20 10:48:46;;;;;;;3.35;2.35;;;;;;;10.79;100.00;101374.88;6272382;28;20504;-74
2022/10/20 10:52:00;;;;;;;3.60;2.40;;;;;;;10.87;100.00;101362.25;6269643;28;20049;-75
2022/10/20 10:55:16;;;;;;;3.67;2.25;;;;;;;10.95;99.63;101363.69;6271671;28;20045;-74
2022/10/20 10:58:31;;;;;;;4.20;2.65;;;;;;;10.96;99.27;101354.88;6272221;28;20519;-74
2022/10/20 11:02:02;;;;;;;3.80;2.55;;;;;;;10.99;98.14;101350.34;6278184;28;20051;-76
2022/10/20 11:05:21;;;;;;;5.65;2.40;;;;;;;11.08;99.23;101328.00;6271134;28;20405;-75
2022/10/20 11:08:34;;;;;;;3.97;2.38;;;;;;;11.11;98.70;101326.06;6253931;28;20100;-74
2022/10/20 11:11:53;;;;;;;6.43;2.65;;;;;;;11.26;96.93;101335.03;6252674;28;20049;-74
2022/10/20 11:15:15;;;;;;;4.93;2.67;;;;;;;11.43;97.85;101314.03;6270175;28;20053;-75
2022/10/20 11:18:31;;;;;;;5.28;3.13;;;;;;;11.65;95.87;101324.41;6271450;28;20056;-76
2022/10/20 11:21:42;;;;;;;10.30;3.15;;;;;;;11.92;93.37;101327.47;6271351;28;20056;-76
2022/10/20 11:24:48;;;;;;;4.00;2.25;;;;;;;12.17;93.57;101331.50;6271239;28;20060;-77
2022/10/20 11:27:51;;;;;;;7.57;2.47;;;;;;;12.35;93.04;101330.59;6271308;28;20056;-76
2022/10/20 11:30:54;;;;;;;7.50;4.00;;;;;;;12.52;93.26;101316.53;6270854;28;20057;-76
2022/10/20 11:34:03;;;;;;;3.97;2.38;;;;;;;12.82;90.42;101305.31;6270682;28;20049;-76
2022/10/20 11:37:13;;;;;;;9.95;2.75;;;;;;;12.95;87.59;101323.03;6271344;28;20049;-75
2022/10/20 11:40:22;;;;;;;3.88;2.28;;;;;;;12.83;88.48;101307.84;6258246;28;20060;-76
2022/10/20 11:43:27;;;;;;;;;;;;;;;12.88;88.08;101297.06;6260873;28;20429;-76
2022/10/20 11:46:36;;;;;;;4.88;2.13;;;;;;;13.18;87.95;101279.53;6271099;28;19921;-80
2022/10/20 11:49:39;;;;;;;;;;;;;;;13.20;87.16;101282.94;6271578;28;20049;-77
2022/10/20 11:53:15;;;;;;;4.13;2.10;;;;;;;12.98;86.34;101277.13;6259534;28;20392;-77
2022/10/20 11:56:42;;;;;;;5.43;2.58;;;;;;;12.87;87.31;101268.97;6270315;28;20543;-77
2022/10/20 12:00:03;;;;;;;3.88;2.17;;;;;;;12.93;88.01;101263.34;6271724;28;20496;-77
2022/10/20 12:03:51;;;;;;;4.18;2.55;;;;;;;13.00;87.53;101256.81;6271712;28;20087;-77
2022/10/20 12:07:12;;;;;;;3.53;2.08;;;;;;;13.28;88.33;101247.38;6219169;28;20042;-78
2022/10/20 12:10:34;;;;;;;3.55;1.92;;;;;;;13.43;87.55;101250.00;6271156;28;20060;-78
2022/10/20 12:13:47;;;;;;;3.25;2.25;;;;;;;13.56;86.89;101251.94;6271123;28;20132;-75
2022/10/20 12:17:14;;;;;;;3.13;1.80;;;;;;;13.66;86.04;101245.19;6271015;28;20044;-75
2022/10/20 12:20:47;;;;;;;7.78;2.08;;;;;;;13.67;85.86;101231.03;6270735;28;20052;-75
2022/10/20 12:24:01;;;;;;;3.58;1.98;;;;;;;13.70;86.22;101222.94;6270792;28;20411;-75
2022/10/20 12:27:16;;;;;;;5.65;2.53;;;;;;;13.69;84.48;101229.16;6270960;28;20511;-75
2022/10/20 12:30:41;;;;;;;5.53;2.10;;;;;;;13.66;85.33;101226.69;6267535;28;20049;-76
2022/10/20 12:34:03;;;;;;;2.70;1.85;;;;;;;13.65;83.83;101209.16;6262408;28;20066;-75
2022/10/20 12:37:08;;;;;;;3.42;1.83;;;;;;;13.74;84.93;101198.03;6270608;28;20052;-75
2022/10/20 12:40:24;;;;;;;3.75;2.30;;;;;;;13.77;83.23;101197.03;6272400;28;20056;-75
2022/10/20 12:43:30;;;;;;;7.43;2.63;;;;;;;13.73;83.30;101204.28;6270753;28;20053;-75
2022/10/20 12:46:34;;;;;;;5.68;2.85;;;;;;;13.61;83.55;101200.53;6270504;28;20075;-75
2022/10/20 12:49:40;;;;;;;5.90;2.20;;;;;;;13.59;83.46;101198.94;6270561;28;20053;-77
2022/10/20 12:52:41;;;;;;;2.30;1.77;;;;;;;13.73;85.29;101198.97;6270504;28;20041;-74
2022/10/20 12:55:45;;;;;;;3.97;2.20;;;;;;;13.92;82.30;101207.50;6270040;28;20041;-74
2022/10/20 12:59:23;;;;;;;5.85;2.10;;;;;;;14.07;82.41;101203.09;6270352;28;20045;-73
2022/10/20 13:02:30;;;;;;;2.65;1.73;;;;;;;14.11;82.43;101191.38;6269624;28;20064;-77
2022/10/20 13:05:45;;;;;;;8.35;2.15;;;;;;;13.96;82.22;101177.31;6272730;28;20048;-73
2022/10/20 13:09:18;;;;;;;6.55;2.28;;;;;;;13.89;83.64;101178.63;6274836;28;20049;-75
2022/10/20 13:12:27;;;;;;;4.15;2.28;;;;;;;13.85;82.97;101169.19;6274571;28;20065;-75
2022/10/20 13:15:32;;;;;;;3.90;1.90;;;;;;;13.82;83.10;101184.38;6274321;28;20049;-77
2022/10/20 13:18:40;;;;;;;5.43;2.20;;;;;;;13.76;85.36;101187.38;6273220;28;20044;-77
2022/10/20 13:21:43;;;;;;;6.47;2.55;;;;;;;13.70;84.27;101185.94;6269196;28;20045;-77
2022/10/20 13:24:44;;;;;;;4.22;2.30;;;;;;;13.62;84.50;101182.91;6274525;28;20056;-77
2022/10/20 13:27:48;;;;;;;3.83;2.22;;;;;;;13.58;84.55;101186.66;6275183;28;20041;-75
2022/10/20 13:31:16;;;;;;;6.40;2.47;;;;;;;13.54;85.65;101182.53;6273862;28;20044;-75
2022/10/20 13:34:24;;;;;;;2.67;2.15;;;;;;;13.49;85.83;101166.09;6273560;28;20049;-76
2022/10/20 13:37:44;;;;;;;5.07;2.47;;;;;;;13.41;86.04;101161.28;6273756;28;20564;-76
2022/10/20 13:40:55;;;;;;;6.47;2.50;;;;;;;13.33;85.96;101145.88;6248883;28;20057;-76
2022/10/20 13:44:04;;;;;;;2.53;1.70;;;;;;;13.33;86.89;101169.63;6249068;28;20061;-76
2022/10/20 13:47:17;;;;;;;5.87;1.80;;;;;;;13.30;87.94;101168.94;6249394;28;20052;-76
2022/10/20 13:50:23;;;;;;;4.22;2.28;;;;;;;13.26;88.09;101177.97;6248777;28;20284;-76
2022/10/20 13:53:30;;;;;;;3.72;2.20;;;;;;;13.23;88.00;101170.25;6250565;28;20045;-77
2022/10/20 13:56:35;;;;;;;3.13;1.80;;;;;;;13.21;89.26;101170.28;6262886;28;20041;-76
2022/10/20 13:59:36;;;;;;;4.32;2.67;;;;;;;13.18;89.04;101158.16;6278820;28;20052;-76
2022/10/20 14:02:38;;;;;;;6.60;2.42;;;;;;;13.14;90.86;101164.53;6289678;28;20052;-76
2022/10/20 14:05:39;;;;;;;3.70;2.47;;;;;;;13.11;90.64;101164.69;6297682;28;20055;-76
2022/10/20 14:08:44;;;;;;;4.07;2.03;;;;;;;13.11;90.80;101159.41;6298410;28;20045;-77
2022/10/20 14:11:49;;;;;;;3.92;2.30;;;;;;;13.06;91.82;101150.06;6286085;28;20049;-76
2022/10/20 14:14:50;;;;;;;4.32;1.98;;;;;;;13.03;92.26;101142.31;6297165;28;20415;-77
2022/10/20 14:17:56;;;;;;;3.92;2.72;;;;;;;12.98;91.98;101137.31;6283861;28;20041;-77
2022/10/20 14:21:01;;;;;;;6.05;2.95;;;;;;;12.95;93.16;101132.22;6287413;28;20049;-76
2022/10/20 14:24:06;;;;;;;6.88;2.17;;;;;;;12.90;93.45;101129.00;6289046;28;20055;-76